Time;durP1;ratioP1;P1;durP2;ratioP2;P2;SDS_P1;SDS_P2;PMS_P1;PMS_P2;Temp;Humidity;BMP_temperature;BMP_pressure;BME280_temperature;BME280_humidity;BME280_pressure;Samples;Min_cycle;Max_cycle;Signal;HPM_P1;HPM_P2
2023/09/09 00:00:51;;;;;;;13.20;10.27;;;;;;;;;;5058079;28;20189;-70
2023/09/09 00:03:18;;;;;;;18.63;10.97;;;;;;;;;;5076893;28;20502;-70
2023/09/09 00:05:45;;;;;;;15.00;10.93;;;;;;;;;;5076575;28;20264;-71
2023/09/09 00:08:12;;;;;;;13.67;9.87;;;;;;;;;;5077370;28;20198;-71
2023/09/09 00:18:44;;;;;;;12.07;9.30;;;;;;;;;;5076684;28;20192;-71
2023/09/09 00:21:10;;;;;;;11.73;9.40;;;;;;;;;;5059045;28;20229;-70
2023/09/09 00:23:37;;;;;;;15.17;9.57;;;;;;;;;;5076583;28;20283;-70
2023/09/09 00:26:04;;;;;;;13.03;9.90;;;;;;;;;;5076500;28;20186;-71
2023/09/09 00:28:32;;;;;;;14.77;10.10;;;;;;;;;;5058377;28;20224;-70
2023/09/09 00:30:59;;;;;;;14.40;10.10;;;;;;;;;;5076447;28;20178;-71
2023/09/09 00:33:26;;;;;;;16.50;10.23;;;;;;;;;;5058488;28;20234;-70
2023/09/09 00:35:52;;;;;;;13.23;10.13;;;;;;;;;;5058906;28;20590;-70
2023/09/09 00:38:20;;;;;;;17.00;11.37;;;;;;;;;;5075123;28;20186;-70
2023/09/09 00:41:07;;;;;;;15.50;9.70;;;;;;;;;;5058396;28;20663;-71
2023/09/09 00:43:37;;;;;;;13.67;9.40;;;;;;;;;;5075266;28;20560;-71
2023/09/09 00:50:09;;;;;;;17.70;11.80;;;;;;;;;;5076085;28;20536;-70
2023/09/09 00:56:36;;;;;;;13.20;9.70;;;;;;;;;;5075800;28;20313;-71
2023/09/09 00:59:03;;;;;;;16.43;10.07;;;;;;;;;;5058471;28;20236;-71
2023/09/09 01:01:32;;;;;;;13.90;9.30;;;;;;;;;;5075840;28;20186;-71
2023/09/09 01:03:59;;;;;;;13.83;9.67;;;;;;;;;;5075874;28;20178;-70
2023/09/09 01:06:26;;;;;;;13.97;10.27;;;;;;;;;;5058165;28;20193;-70
2023/09/09 01:08:53;;;;;;;15.17;10.80;;;;;;;;;;5057924;28;20197;-71
2023/09/09 01:47:15;;;;;;;19.50;10.73;;;;;;;;;;5037104;28;20191;-71
2023/09/09 01:49:43;;;;;;;16.87;9.40;;;;;;;;;;5020775;28;20203;-71
2023/09/09 01:52:09;;;;;;;13.97;9.80;;;;;;;;;;5054821;28;20187;-71
2023/09/09 01:54:36;;;;;;;12.60;9.43;;;;;;;;;;5036688;28;20729;-72
2023/09/09 01:57:03;;;;;;;14.07;9.63;;;;;;;;;;5036903;28;20244;-72
2023/09/09 02:03:31;;;;;;;14.93;10.40;;;;;;;;;;5054797;28;20197;-72
2023/09/09 02:05:58;;;;;;;16.73;10.17;;;;;;;;;;5036762;28;20281;-71
2023/09/09 02:08:42;;;;;;;11.23;9.50;;;;;;;;;;5036763;28;20238;-72
2023/09/09 02:11:09;;;;;;;12.90;10.03;;;;;;;;;;5054450;28;20244;-71
2023/09/09 02:13:36;;;;;;;12.23;9.90;;;;;;;;;;5054684;28;20244;-72
2023/09/09 02:16:06;;;;;;;11.93;9.97;;;;;;;;;;5054134;28;20189;-72
2023/09/09 02:18:37;;;;;;;12.47;9.13;;;;;;;;;;5037258;28;20171;-71
2023/09/09 02:21:21;;;;;;;13.97;9.90;;;;;;;;;;5054671;28;20456;-72
2023/09/09 02:23:48;;;;;;;11.53;8.77;;;;;;;;;;5054088;28;20193;-71
2023/09/09 02:26:32;;;;;;;11.87;9.30;;;;;;;;;;5053590;28;20178;-72
2023/09/09 02:28:59;;;;;;;12.93;9.63;;;;;;;;;;5054274;28;20582;-71
2023/09/09 02:31:43;;;;;;;13.03;9.73;;;;;;;;;;5036503;28;20174;-71
2023/09/09 02:34:14;;;;;;;13.20;9.27;;;;;;;;;;5037007;28;20210;-72
2023/09/09 02:36:44;;;;;;;11.17;8.93;;;;;;;;;;5054515;28;20187;-72
2023/09/09 02:39:11;;;;;;;11.00;8.80;;;;;;;;;;5020791;28;20202;-72
2023/09/09 02:41:38;;;;;;;10.23;8.50;;;;;;;;;;5019844;28;20202;-71
2023/09/09 02:44:05;;;;;;;11.60;9.07;;;;;;;;;;5054255;28;20182;-72
2023/09/09 02:50:31;;;;;;;15.07;10.13;;;;;;;;;;5073890;28;20157;-71
2023/09/09 02:52:58;;;;;;;10.87;8.97;;;;;;;;;;5073891;28;20195;-72
2023/09/09 02:55:24;;;;;;;12.03;9.80;;;;;;;;;;5039341;28;20229;-72
2023/09/09 02:57:51;;;;;;;16.30;11.17;;;;;;;;;;5056014;28;20194;-72
2023/09/09 03:00:18;;;;;;;12.57;9.47;;;;;;;;;;5073679;28;20592;-72
2023/09/09 03:02:45;;;;;;;11.40;9.73;;;;;;;;;;5055798;28;20232;-71
2023/09/09 03:05:12;;;;;;;14.93;9.93;;;;;;;;;;5039230;28;20186;-71
2023/09/09 03:07:39;;;;;;;14.67;9.47;;;;;;;;;;5055641;28;20579;-72
2023/09/09 03:10:06;;;;;;;14.20;9.87;;;;;;;;;;5056404;28;20186;-72
2023/09/09 03:12:33;;;;;;;13.60;9.13;;;;;;;;;;5072265;28;20277;-72
2023/09/09 03:15:03;;;;;;;11.93;9.57;;;;;;;;;;5055664;28;20267;-72
2023/09/09 03:17:47;;;;;;;13.63;9.70;;;;;;;;;;5073964;28;20500;-71
2023/09/09 03:20:14;;;;;;;16.60;10.13;;;;;;;;;;5073800;28;20182;-72
2023/09/09 03:26:35;;;;;;;12.33;9.50;;;;;;;;;;5073693;28;20157;-72
2023/09/09 03:29:02;;;;;;;12.27;9.83;;;;;;;;;;5055748;28;20255;-72
2023/09/09 03:31:29;;;;;;;12.17;9.33;;;;;;;;;;5055570;28;20230;-71
2023/09/09 03:33:56;;;;;;;12.73;9.53;;;;;;;;;;5055557;28;20198;-72
2023/09/09 03:36:23;;;;;;;13.87;9.30;;;;;;;;;;5059403;28;20618;-72
2023/09/09 03:38:50;;;;;;;13.63;9.23;;;;;;;;;;5058637;28;20251;-71
2023/09/09 03:41:17;;;;;;;11.63;8.87;;;;;;;;;;5077262;28;20644;-72
2023/09/09 03:44:02;;;;;;;14.37;9.33;;;;;;;;;;5077355;28;20161;-72
2023/09/09 03:46:29;;;;;;;13.50;10.10;;;;;;;;;;5061788;28;20574;-72
2023/09/09 03:48:57;;;;;;;13.90;10.67;;;;;;;;;;5039280;28;20194;-72
2023/09/09 03:51:25;;;;;;;13.83;9.60;;;;;;;;;;5039965;28;20202;-72
2023/09/09 03:53:52;;;;;;;16.87;11.23;;;;;;;;;;5055836;28;20637;-72
2023/09/09 03:56:19;;;;;;;14.47;10.50;;;;;;;;;;5039456;28;20278;-72
2023/09/09 03:58:46;;;;;;;12.60;10.53;;;;;;;;;;5022876;28;20274;-71
2023/09/09 04:01:12;;;;;;;12.17;9.77;;;;;;;;;;5039410;28;20193;-72
2023/09/09 04:03:40;;;;;;;14.57;10.07;;;;;;;;;;5039055;28;20245;-72
2023/09/09 04:06:12;;;;;;;14.20;9.87;;;;;;;;;;5024280;28;20656;-71
2023/09/09 04:08:40;;;;;;;16.03;10.47;;;;;;;;;;5056955;28;20751;-71
2023/09/09 04:11:11;;;;;;;14.00;10.23;;;;;;;;;;5028757;28;20243;-72
2023/09/09 04:13:40;;;;;;;17.77;10.40;;;;;;;;;;5076860;28;20225;-71
2023/09/09 04:16:10;;;;;;;14.33;9.80;;;;;;;;;;5059860;28;20559;-71
2023/09/09 04:22:37;;;;;;;14.47;10.13;;;;;;;;;;5076791;28;20204;-72
2023/09/09 04:25:04;;;;;;;14.27;10.17;;;;;;;;;;5042734;28;20221;-72
2023/09/09 04:27:31;;;;;;;12.83;9.77;;;;;;;;;;5059254;28;20645;-71
2023/09/09 04:29:58;;;;;;;14.77;9.37;;;;;;;;;;5059064;28;20529;-72
2023/09/09 04:32:26;;;;;;;11.23;8.90;;;;;;;;;;5034746;28;20268;-72
2023/09/09 04:34:57;;;;;;;14.00;10.17;;;;;;;;;;5076936;28;20190;-71
2023/09/09 04:37:30;;;;;;;17.33;11.07;;;;;;;;;;5034912;28;20266;-72
2023/09/09 04:39:57;;;;;;;14.23;9.47;;;;;;;;;;5058465;28;20265;-72
2023/09/09 04:42:24;;;;;;;16.33;11.27;;;;;;;;;;5076688;28;20194;-72
2023/09/09 04:52:57;;;;;;;16.83;10.33;;;;;;;;;;5056574;28;20544;-71
2023/09/09 04:55:26;;;;;;;16.50;10.33;;;;;;;;;;5021913;28;20309;-71
2023/09/09 04:57:53;;;;;;;13.93;10.03;;;;;;;;;;5038818;28;20198;-72
2023/09/09 05:04:19;;;;;;;23.07;11.00;;;;;;;;;;5055909;28;20165;-71
2023/09/09 05:10:45;;;;;;;27.50;11.00;;;;;;;;;;5055694;28;20217;-71
2023/09/09 05:13:12;;;;;;;54.17;14.03;;;;;;;;;;5038260;28;20222;-71
2023/09/09 05:15:59;;;;;;;49.63;13.67;;;;;;;;;;5024573;28;20297;-70
2023/09/09 05:22:29;;;;;;;31.77;13.70;;;;;;;;;;5055631;28;20241;-71
2023/09/09 05:24:56;;;;;;;28.60;12.40;;;;;;;;;;5038539;28;20199;-71
2023/09/09 05:27:23;;;;;;;24.63;12.67;;;;;;;;;;5037750;28;20186;-71
2023/09/09 05:29:50;;;;;;;17.10;10.60;;;;;;;;;;5055499;28;20187;-71
2023/09/09 05:32:19;;;;;;;19.63;12.80;;;;;;;;;;5037476;28;20191;-71
2023/09/09 05:34:47;;;;;;;14.90;11.47;;;;;;;;;;5055092;28;20199;-71
2023/09/09 05:37:15;;;;;;;15.77;11.33;;;;;;;;;;5037595;28;20281;-72
2023/09/09 05:39:42;;;;;;;19.03;12.57;;;;;;;;;;5037767;28;20281;-71
2023/09/09 05:42:10;;;;;;;20.53;11.67;;;;;;;;;;5055976;28;20182;-71
2023/09/09 05:44:37;;;;;;;16.30;11.67;;;;;;;;;;5037148;28;20194;-71
2023/09/09 05:50:47;;;;;;;16.73;12.27;;;;;;;;;;5038300;28;20645;-71
2023/09/09 05:53:14;;;;;;;16.90;12.47;;;;;;;;;;5038429;28;20215;-72
2023/09/09 05:55:42;;;;;;;16.67;11.93;;;;;;;;;;5021200;28;20238;-72
2023/09/09 05:58:09;;;;;;;21.00;13.07;;;;;;;;;;5036926;28;20187;-72
2023/09/09 06:04:30;;;;;;;24.73;13.47;;;;;;;;;;5055293;28;20234;-72
2023/09/09 06:10:56;;;;;;;24.63;13.23;;;;;;;;;;5054459;28;20221;-72
2023/09/09 06:17:23;;;;;;;22.27;13.17;;;;;;;;;;5054405;28;20640;-71
2023/09/09 06:19:50;;;;;;;24.57;13.00;;;;;;;;;;5037192;28;20273;-70
2023/09/09 06:22:17;;;;;;;25.23;13.80;;;;;;;;;;5053662;28;20203;-70
2023/09/09 06:24:45;;;;;;;20.83;12.57;;;;;;;;;;5020267;28;20194;-69
2023/09/09 06:27:12;;;;;;;19.27;13.13;;;;;;;;;;5054353;28;20522;-73
2023/09/09 06:33:34;;;;;;;20.73;12.70;;;;;;;;;;5054669;28;20214;-72
2023/09/09 06:36:02;;;;;;;23.83;13.17;;;;;;;;;;5054816;28;20213;-71
2023/09/09 06:38:29;;;;;;;18.57;12.97;;;;;;;;;;5036930;28;20221;-72
2023/09/09 06:44:56;;;;;;;20.20;14.33;;;;;;;;;;5053967;28;20218;-72
2023/09/09 06:47:23;;;;;;;24.30;14.97;;;;;;;;;;5053753;28;20174;-72
2023/09/09 06:49:51;;;;;;;22.97;14.83;;;;;;;;;;5049515;28;20238;-71
2023/09/09 06:52:19;;;;;;;23.53;14.07;;;;;;;;;;5055848;28;20186;-71
2023/09/09 06:54:47;;;;;;;28.37;12.83;;;;;;;;;;5056157;28;20322;-71
2023/09/09 06:57:18;;;;;;;20.77;11.70;;;;;;;;;;5040311;28;20190;-70
2023/09/09 07:03:45;;;;;;;23.60;10.67;;;;;;;;;;5073672;28;20192;-71
2023/09/09 07:10:13;;;;;;;20.70;8.40;;;;;;;;;;5072989;28;20164;-70
2023/09/09 07:12:42;;;;;;;24.20;8.20;;;;;;;;;;5056035;28;20248;-71
2023/09/09 07:15:09;;;;;;;17.17;7.93;;;;;;;;;;5073501;28;20194;-74
2023/09/09 07:17:37;;;;;;;18.80;7.70;;;;;;;;;;5073586;28;20190;-73
2023/09/09 07:20:05;;;;;;;17.73;7.47;;;;;;;;;;5055528;28;20231;-73
2023/09/09 07:26:33;;;;;;;9.47;5.10;;;;;;;;;;5073640;28;20233;-70
2023/09/09 07:29:01;;;;;;;7.30;4.60;;;;;;;;;;5074159;28;20185;-69
2023/09/09 07:31:29;;;;;;;9.20;4.73;;;;;;;;;;5055800;28;20182;-69
2023/09/09 07:33:57;;;;;;;10.97;4.30;;;;;;;;;;5055694;28;20198;-70
2023/09/09 07:36:24;;;;;;;5.50;3.73;;;;;;;;;;5073552;28;20218;-70
2023/09/09 07:38:52;;;;;;;5.73;3.30;;;;;;;;;;5055944;28;20190;-71
2023/09/09 07:41:20;;;;;;;4.97;3.33;;;;;;;;;;5055908;28;20190;-69
2023/09/09 07:43:48;;;;;;;8.53;3.60;;;;;;;;;;5055818;28;20259;-70
2023/09/09 07:46:17;;;;;;;5.37;3.20;;;;;;;;;;5073147;28;20205;-70
2023/09/09 07:48:43;;;;;;;7.10;3.40;;;;;;;;;;5038672;28;20313;-70
2023/09/09 07:51:12;;;;;;;6.13;3.43;;;;;;;;;;5055563;28;20196;-70
2023/09/09 07:53:39;;;;;;;5.00;3.67;;;;;;;;;;5073366;28;20186;-70
2023/09/09 07:56:06;;;;;;;6.37;4.37;;;;;;;;;;5055214;28;20249;-70
2023/09/09 07:58:50;;;;;;;5.40;3.90;;;;;;;;;;5072597;28;20260;-70
2023/09/09 08:01:17;;;;;;;7.40;4.50;;;;;;;;;;5055502;28;20178;-70
2023/09/09 08:03:44;;;;;;;6.33;4.10;;;;;;;;;;5072946;28;20189;-69
2023/09/09 08:06:12;;;;;;;7.67;4.73;;;;;;;;;;5055063;28;20684;-70
2023/09/09 08:08:39;;;;;;;10.50;4.97;;;;;;;;;;5073043;28;20197;-70
2023/09/09 08:11:06;;;;;;;7.23;4.30;;;;;;;;;;5055109;28;20188;-70
2023/09/09 08:13:34;;;;;;;5.83;4.40;;;;;;;;;;5072736;28;20560;-69
2023/09/09 08:16:02;;;;;;;5.93;4.43;;;;;;;;;;5072143;28;20309;-68
2023/09/09 08:18:29;;;;;;;7.03;4.30;;;;;;;;;;5039194;28;20198;-69
2023/09/09 08:20:57;;;;;;;6.97;4.23;;;;;;;;;;5057065;28;20662;-69
2023/09/09 08:23:24;;;;;;;7.43;4.73;;;;;;;;;;5058531;28;20191;-68
2023/09/09 08:26:09;;;;;;;5.93;4.07;;;;;;;;;;5075871;28;20189;-69
2023/09/09 08:28:36;;;;;;;7.50;4.27;;;;;;;;;;5058172;28;20188;-69
2023/09/09 08:31:22;;;;;;;7.93;4.57;;;;;;;;;;5047038;28;20545;-70
2023/09/09 08:33:49;;;;;;;8.00;4.07;;;;;;;;;;5058540;28;20189;-70
2023/09/09 08:36:16;;;;;;;7.40;4.50;;;;;;;;;;5076376;28;20645;-70
2023/09/09 08:38:45;;;;;;;7.53;4.43;;;;;;;;;;5059150;28;20621;-69
2023/09/09 08:41:25;;;;;;;5.47;4.20;;;;;;;;;;5075943;28;20670;-69
2023/09/09 08:43:55;;;;;;;7.13;5.07;;;;;;;;;;5076766;28;20188;-69
2023/09/09 08:46:23;;;;;;;6.83;4.37;;;;;;;;;;5042816;28;20173;-69
2023/09/09 08:48:50;;;;;;;7.90;4.30;;;;;;;;;;5075923;28;20730;-68
2023/09/09 08:51:39;;;;;;;6.17;4.50;;;;;;;;;;5058241;28;20644;-68
2023/09/09 08:54:07;;;;;;;7.20;5.00;;;;;;;;;;5041069;28;20205;-69
2023/09/09 08:56:34;;;;;;;6.70;5.13;;;;;;;;;;5041493;28;20209;-69
2023/09/09 08:59:02;;;;;;;7.50;4.87;;;;;;;;;;5041455;28;20280;-69
2023/09/09 09:01:29;;;;;;;7.43;4.80;;;;;;;;;;5057884;28;20198;-69
2023/09/09 09:04:14;;;;;;;10.20;5.23;;;;;;;;;;5075953;28;20163;-70
2023/09/09 09:06:41;;;;;;;6.97;4.97;;;;;;;;;;5041714;28;20651;-70
2023/09/09 09:09:10;;;;;;;8.83;4.80;;;;;;;;;;5068394;28;20557;-69
2023/09/09 09:11:38;;;;;;;8.27;4.80;;;;;;;;;;5076385;28;20525;-69
2023/09/09 09:14:06;;;;;;;7.50;4.80;;;;;;;;;;5057103;28;20210;-70
2023/09/09 09:16:34;;;;;;;6.73;5.13;;;;;;;;;;5041474;28;20208;-67
2023/09/09 09:19:02;;;;;;;8.37;5.20;;;;;;;;;;5041185;28;20193;-67
2023/09/09 09:21:32;;;;;;;8.20;4.33;;;;;;;;;;5057466;28;20197;-67
2023/09/09 09:23:59;;;;;;;5.07;4.50;;;;;;;;;;5075055;28;20596;-70
2023/09/09 09:26:26;;;;;;;7.23;4.87;;;;;;;;;;5057643;28;20201;-70
2023/09/09 09:28:54;;;;;;;11.10;5.33;;;;;;;;;;5052230;28;20190;-69
2023/09/09 09:35:21;;;;;;;8.23;5.00;;;;;;;;;;5074978;28;20188;-69
2023/09/09 09:41:49;;;;;;;8.77;4.57;;;;;;;;;;5074965;28;20157;-69
2023/09/09 09:44:18;;;;;;;6.27;5.00;;;;;;;;;;5041036;28;20222;-69
2023/09/09 09:50:46;;;;;;;6.07;5.10;;;;;;;;;;5074727;28;20220;-69
2023/09/09 09:53:13;;;;;;;6.70;5.07;;;;;;;;;;5040688;28;20189;-69
2023/09/09 09:55:40;;;;;;;8.80;5.40;;;;;;;;;;5041251;28;20209;-69
2023/09/09 09:58:07;;;;;;;6.97;5.30;;;;;;;;;;5040748;28;20194;-68
2023/09/09 10:04:38;;;;;;;5.77;5.17;;;;;;;;;;5074785;28;20156;-69
2023/09/09 10:07:07;;;;;;;6.30;5.00;;;;;;;;;;5057176;28;20258;-69
2023/09/09 10:09:55;;;;;;;7.90;5.00;;;;;;;;;;5071833;28;20171;-68
2023/09/09 10:12:27;;;;;;;5.50;4.80;;;;;;;;;;5030457;28;20699;-67
2023/09/09 10:26:16;;;;;;;6.50;5.03;;;;;;;;;;5056439;28;20247;-67
2023/09/09 10:32:43;;;;;;;5.83;5.07;;;;;;;;;;5062616;28;20327;-69
2023/09/09 10:35:10;;;;;;;9.03;5.17;;;;;;;;;;5057716;28;20170;-71
2023/09/09 10:37:39;;;;;;;8.23;4.57;;;;;;;;;;5056319;28;20204;-71
2023/09/09 10:40:06;;;;;;;5.83;5.23;;;;;;;;;;5054555;28;20600;-68
2023/09/09 10:42:38;;;;;;;5.60;5.10;;;;;;;;;;5052273;28;20191;-68
2023/09/09 10:49:09;;;;;;;6.67;4.90;;;;;;;;;;5073873;28;20567;-71
2023/09/09 10:51:48;;;;;;;6.97;5.27;;;;;;;;;;5040210;28;20209;-71
2023/09/09 10:54:18;;;;;;;5.63;5.03;;;;;;;;;;5056174;28;20189;-70
2023/09/09 10:56:49;;;;;;;10.17;4.70;;;;;;;;;;5068251;28;20201;-64
2023/09/09 10:59:17;;;;;;;6.80;5.33;;;;;;;;;;5035856;28;20262;-65
2023/09/09 11:06:19;;;;;;;7.40;4.77;;;;;;;;;;5054086;28;20327;-74
2023/09/09 11:08:46;;;;;;;5.10;4.60;;;;;;;;;;4992659;28;20200;-69
2023/09/09 11:11:17;;;;;;;5.80;5.30;;;;;;;;;;5027871;28;20664;-73
2023/09/09 11:13:50;;;;;;;6.33;5.07;;;;;;;;;;5054936;28;20300;-70
2023/09/09 11:20:18;;;;;;;8.83;4.87;;;;;;;;;;5073910;28;20153;-74
2023/09/09 11:26:45;;;;;;;5.80;5.10;;;;;;;;;;5073916;28;20244;-74
2023/09/09 11:29:12;;;;;;;6.40;5.10;;;;;;;;;;5065196;28;20186;-73
2023/09/09 11:31:59;;;;;;;7.43;5.07;;;;;;;;;;5034774;28;20183;-74
2023/09/09 11:34:33;;;;;;;6.13;4.77;;;;;;;;;;5051919;28;20197;-74
2023/09/09 11:37:01;;;;;;;6.57;5.50;;;;;;;;;;5036193;28;20255;-74
2023/09/09 11:46:57;;;;;;;6.53;5.03;;;;;;;;;;5072798;28;20173;-67
2023/09/09 11:49:24;;;;;;;7.67;5.10;;;;;;;;;;5054470;28;20262;-67
2023/09/09 11:55:44;;;;;;;7.17;4.97;;;;;;;;;;5054305;28;20240;-68
2023/09/09 12:02:18;;;;;;;6.03;4.70;;;;;;;;;;5058845;28;20498;-80
2023/09/09 12:12:25;;;;;;;5.47;4.67;;;;;;;;;;5076776;28;20521;-78
2023/09/09 12:14:52;;;;;;;5.77;5.13;;;;;;;;;;5076429;28;20202;-78
2023/09/09 12:17:19;;;;;;;7.40;6.20;;;;;;;;;;5059525;28;20532;-76
2023/09/09 12:19:58;;;;;;;8.23;5.40;;;;;;;;;;5058557;28;20529;-77
2023/09/09 12:22:32;;;;;;;7.90;5.13;;;;;;;;;;5075855;28;20190;-77
2023/09/09 12:28:19;;;;;;;7.53;5.27;;;;;;;;;;5058014;28;20216;-77
2023/09/09 12:30:46;;;;;;;6.13;5.20;;;;;;;;;;5077281;28;20232;-77
2023/09/09 12:33:13;;;;;;;5.60;4.97;;;;;;;;;;5059409;28;20517;-77
2023/09/09 12:38:52;;;;;;;6.77;4.90;;;;;;;;;;5059386;28;20189;-76
2023/09/09 12:41:37;;;;;;;6.70;5.60;;;;;;;;;;5069987;28;20696;-77
2023/09/09 12:44:06;;;;;;;6.70;4.77;;;;;;;;;;5077661;28;20246;-79
2023/09/09 12:46:34;;;;;;;5.10;4.53;;;;;;;;;;5076377;28;20540;-76
2023/09/09 12:49:03;;;;;;;6.60;5.00;;;;;;;;;;5058745;28;20186;-74
2023/09/09 12:51:32;;;;;;;6.57;5.07;;;;;;;;;;5064436;28;20256;-76
2023/09/09 12:54:00;;;;;;;5.40;4.90;;;;;;;;;;5057468;28;20186;-76
2023/09/09 12:56:27;;;;;;;5.93;5.13;;;;;;;;;;5041588;28;20292;-76
2023/09/09 12:58:55;;;;;;;5.47;4.83;;;;;;;;;;5058931;28;20705;-74
2023/09/09 13:01:22;;;;;;;6.00;5.37;;;;;;;;;;5041654;28;20194;-74
2023/09/09 13:03:48;;;;;;;5.93;5.40;;;;;;;;;;5041516;28;20200;-74
2023/09/09 13:09:22;;;;;;;6.07;4.67;;;;;;;;;;5075275;28;20205;-74
2023/09/09 13:11:49;;;;;;;7.13;5.03;;;;;;;;;;5057776;28;20190;-74
2023/09/09 13:14:16;;;;;;;22.40;5.70;;;;;;;;;;5039097;28;20211;-73
2023/09/09 13:20:45;;;;;;;23.67;6.30;;;;;;;;;;5075481;28;20177;-72
2023/09/09 13:26:29;;;;;;;6.53;4.93;;;;;;;;;;5075417;28;20195;-73
2023/09/09 13:28:56;;;;;;;9.20;5.03;;;;;;;;;;5075024;28;20574;-74
2023/09/09 13:35:24;;;;;;;9.23;5.07;;;;;;;;;;5075326;28;20251;-72
2023/09/09 13:38:28;;;;;;;8.70;5.50;;;;;;;;;;5062343;28;20217;-72
2023/09/09 13:40:55;;;;;;;10.10;5.60;;;;;;;;;;5061271;28;20271;-71
2023/09/09 13:43:22;;;;;;;9.07;6.20;;;;;;;;;;5031294;28;20203;-72
2023/09/09 13:49:49;;;;;;;8.07;5.90;;;;;;;;;;5074577;28;20294;-73
2023/09/09 13:52:17;;;;;;;6.07;5.47;;;;;;;;;;5074177;28;20194;-72
2023/09/09 13:54:44;;;;;;;6.47;5.43;;;;;;;;;;5040929;28;20198;-73
2023/09/09 13:57:11;;;;;;;7.47;5.40;;;;;;;;;;5053076;28;20198;-72
2023/09/09 13:59:37;;;;;;;11.67;5.80;;;;;;;;;;5054187;28;20186;-72
2023/09/09 14:02:04;;;;;;;8.07;5.80;;;;;;;;;;5054183;28;20552;-72
2023/09/09 14:04:31;;;;;;;7.77;5.87;;;;;;;;;;5055238;28;20185;-71
2023/09/09 14:06:58;;;;;;;7.27;5.33;;;;;;;;;;5053290;28;20181;-72
2023/09/09 14:09:42;;;;;;;9.87;5.90;;;;;;;;;;5037745;28;20192;-72
2023/09/09 14:16:08;;;;;;;5.60;5.00;;;;;;;;;;5070753;28;20268;-76
2023/09/09 14:18:37;;;;;;;8.63;5.30;;;;;;;;;;5022094;28;20196;-70
2023/09/09 14:25:02;;;;;;;6.07;5.40;;;;;;;;;;5073610;28;20205;-70
2023/09/09 14:27:47;;;;;;;11.00;6.10;;;;;;;;;;5041248;28;20174;-71
2023/09/09 14:30:15;;;;;;;8.17;5.53;;;;;;;;;;5073961;28;20189;-70
2023/09/09 14:32:53;;;;;;;10.67;5.47;;;;;;;;;;5056594;28;20506;-70
2023/09/09 14:35:23;;;;;;;7.23;5.80;;;;;;;;;;5040563;28;20197;-71
2023/09/09 14:37:50;;;;;;;9.17;5.97;;;;;;;;;;5074058;28;20261;-66
2023/09/09 14:40:17;;;;;;;7.53;4.93;;;;;;;;;;5073583;28;20568;-67
2023/09/09 14:50:42;;;;;;;7.07;5.33;;;;;;;;;;5061708;28;20243;-70
2023/09/09 14:53:10;;;;;;;7.27;5.10;;;;;;;;;;5056177;28;20255;-71
2023/09/09 14:55:37;;;;;;;10.87;5.93;;;;;;;;;;5072702;28;20226;-71
2023/09/09 14:58:04;;;;;;;10.70;6.03;;;;;;;;;;5072487;28;20208;-70
2023/09/09 15:00:31;;;;;;;6.70;6.03;;;;;;;;;;5073605;28;20184;-71
2023/09/09 15:02:58;;;;;;;9.87;5.73;;;;;;;;;;5039564;28;20268;-71
2023/09/09 15:05:25;;;;;;;6.97;6.27;;;;;;;;;;5047629;28;20179;-70
2023/09/09 15:07:52;;;;;;;7.93;6.00;;;;;;;;;;5056162;28;20186;-71
2023/09/09 15:10:22;;;;;;;10.23;5.73;;;;;;;;;;5003573;28;20285;-71
2023/09/09 15:12:50;;;;;;;7.43;5.50;;;;;;;;;;5053406;28;20667;-71
2023/09/09 15:15:17;;;;;;;10.57;6.00;;;;;;;;;;5053135;28;20245;-71
2023/09/09 15:17:44;;;;;;;8.07;5.40;;;;;;;;;;5070680;28;20205;-72
2023/09/09 15:20:15;;;;;;;13.77;7.03;;;;;;;;;;5040389;28;20626;-72
2023/09/09 15:22:42;;;;;;;12.03;7.07;;;;;;;;;;5072549;28;20186;-72
2023/09/09 15:28:20;;;;;;;13.10;5.90;;;;;;;;;;5072255;28;20235;-72
2023/09/09 15:34:46;;;;;;;8.60;6.10;;;;;;;;;;5077415;28;20199;-71
2023/09/09 15:37:13;;;;;;;10.57;6.10;;;;;;;;;;5059292;28;20304;-71
2023/09/09 15:39:40;;;;;;;8.13;5.73;;;;;;;;;;5076849;28;20186;-71
2023/09/09 15:50:06;;;;;;;9.13;5.70;;;;;;;;;;5076070;28;20193;-71
2023/09/09 15:52:33;;;;;;;7.47;5.37;;;;;;;;;;5076978;28;20625;-72
2023/09/09 15:55:25;;;;;;;11.33;5.87;;;;;;;;;;5075984;28;20589;-71
2023/09/09 15:57:52;;;;;;;8.77;5.40;;;;;;;;;;5057494;28;20220;-71
2023/09/09 16:00:19;;;;;;;7.57;5.80;;;;;;;;;;5058522;28;20660;-72
2023/09/09 16:06:45;;;;;;;9.67;6.03;;;;;;;;;;5076712;28;20178;-72
2023/09/09 16:09:12;;;;;;;5.90;5.30;;;;;;;;;;5076531;28;20190;-72
2023/09/09 16:11:56;;;;;;;8.17;5.67;;;;;;;;;;5075687;28;20249;-73
2023/09/09 16:14:23;;;;;;;7.17;6.47;;;;;;;;;;5058162;28;20248;-72
2023/09/09 16:20:43;;;;;;;8.47;6.10;;;;;;;;;;5076608;28;20238;-72
2023/09/09 16:23:10;;;;;;;12.97;6.90;;;;;;;;;;5076515;28;20572;-73
2023/09/09 16:25:37;;;;;;;10.83;6.47;;;;;;;;;;5041133;28;20186;-72
2023/09/09 16:28:04;;;;;;;9.07;6.57;;;;;;;;;;5058167;28;20219;-72
2023/09/09 16:30:32;;;;;;;16.33;6.50;;;;;;;;;;5041689;28;20284;-72
2023/09/09 16:32:58;;;;;;;8.10;5.83;;;;;;;;;;5058395;28;20191;-72
2023/09/09 16:35:25;;;;;;;5.80;5.17;;;;;;;;;;5026391;28;20533;-72
2023/09/09 16:37:52;;;;;;;9.53;6.13;;;;;;;;;;5076669;28;20622;-73
2023/09/09 16:40:44;;;;;;;8.07;5.73;;;;;;;;;;5057290;28;20285;-73
2023/09/09 16:51:16;;;;;;;9.40;5.80;;;;;;;;;;5075714;28;20232;-72
2023/09/09 16:53:43;;;;;;;8.50;6.10;;;;;;;;;;5075837;28;20640;-73
2023/09/09 16:59:39;;;;;;;8.03;5.57;;;;;;;;;;5076212;28;20532;-73
2023/09/09 17:02:06;;;;;;;9.27;5.97;;;;;;;;;;5075497;28;20189;-73
2023/09/09 17:04:33;;;;;;;6.87;5.43;;;;;;;;;;5075764;28;20210;-71
2023/09/09 17:07:00;;;;;;;7.43;5.87;;;;;;;;;;5075947;28;20568;-72
2023/09/09 17:12:38;;;;;;;8.23;5.63;;;;;;;;;;5056975;28;20186;-72
2023/09/09 17:15:05;;;;;;;9.37;5.90;;;;;;;;;;5074417;28;20202;-72
2023/09/09 17:21:33;;;;;;;10.33;6.23;;;;;;;;;;5076047;28;20177;-71
2023/09/09 17:24:00;;;;;;;11.17;5.63;;;;;;;;;;5057601;28;20695;-72
2023/09/09 17:29:43;;;;;;;10.50;5.93;;;;;;;;;;5075493;28;20245;-72
2023/09/09 17:32:10;;;;;;;8.60;5.90;;;;;;;;;;5056926;28;20189;-71
2023/09/09 17:38:40;;;;;;;9.27;6.20;;;;;;;;;;5075274;28;20264;-72
2023/09/09 17:45:06;;;;;;;8.27;6.47;;;;;;;;;;5074639;28;20165;-71
2023/09/09 17:55:39;;;;;;;22.73;7.73;;;;;;;;;;5072745;28;20225;-72
2023/09/09 17:58:23;;;;;;;26.57;6.80;;;;;;;;;;5073005;28;20581;-73
2023/09/09 18:00:50;;;;;;;18.20;6.77;;;;;;;;;;5056605;28;20190;-72
2023/09/09 18:03:17;;;;;;;19.17;7.57;;;;;;;;;;5073815;28;20521;-72
2023/09/09 18:05:44;;;;;;;11.90;7.87;;;;;;;;;;5075310;28;20178;-72
2023/09/09 18:08:11;;;;;;;14.50;7.20;;;;;;;;;;5056786;28;20193;-72
2023/09/09 18:10:58;;;;;;;11.50;6.97;;;;;;;;;;5058291;28;20182;-72
2023/09/09 18:13:25;;;;;;;17.73;6.73;;;;;;;;;;5054222;28;20230;-72
2023/09/09 18:15:52;;;;;;;11.53;7.47;;;;;;;;;;5053817;28;20191;-72
2023/09/09 18:18:19;;;;;;;19.20;6.37;;;;;;;;;;5036747;28;20204;-73
2023/09/09 18:20:48;;;;;;;12.57;7.03;;;;;;;;;;5037099;28;20183;-72
2023/09/09 18:23:15;;;;;;;16.80;7.10;;;;;;;;;;5036599;28;20214;-72
2023/09/09 18:25:47;;;;;;;13.83;7.20;;;;;;;;;;5053016;28;20198;-72
2023/09/09 18:28:14;;;;;;;10.70;7.30;;;;;;;;;;5053138;28;20545;-73
2023/09/09 18:30:42;;;;;;;12.93;6.50;;;;;;;;;;5036336;28;20194;-72
2023/09/09 18:37:09;;;;;;;9.70;6.30;;;;;;;;;;5054588;28;20229;-72
2023/09/09 18:39:36;;;;;;;11.50;6.93;;;;;;;;;;5052957;28;20210;-72
2023/09/09 18:42:03;;;;;;;11.83;6.77;;;;;;;;;;5053036;28;20298;-73
2023/09/09 18:48:29;;;;;;;9.70;7.17;;;;;;;;;;5054144;28;20185;-72
2023/09/09 18:54:57;;;;;;;9.83;6.70;;;;;;;;;;5052515;28;20686;-71
2023/09/09 18:57:50;;;;;;;6.93;6.17;;;;;;;;;;5052860;28;20285;-72
2023/09/09 19:00:17;;;;;;;9.30;6.80;;;;;;;;;;5054113;28;20189;-72
2023/09/09 19:06:43;;;;;;;9.23;6.33;;;;;;;;;;5053130;28;20201;-73
2023/09/09 19:09:10;;;;;;;8.10;6.53;;;;;;;;;;5053757;28;20262;-72
2023/09/09 19:23:04;;;;;;;11.57;7.60;;;;;;;;;;5040645;28;20269;-72
2023/09/09 19:25:31;;;;;;;8.73;7.60;;;;;;;;;;5052505;28;20187;-72
2023/09/09 19:28:04;;;;;;;8.47;7.40;;;;;;;;;;5035107;28;20191;-72
2023/09/09 19:30:31;;;;;;;10.90;7.70;;;;;;;;;;5051581;28;20194;-72
2023/09/09 19:33:21;;;;;;;11.13;8.27;;;;;;;;;;5066150;28;20193;-72
2023/09/09 19:39:50;;;;;;;12.37;8.30;;;;;;;;;;5073568;28;20185;-72
2023/09/09 19:42:17;;;;;;;9.07;8.17;;;;;;;;;;5038378;28;20186;-72
2023/09/09 19:52:36;;;;;;;11.97;8.40;;;;;;;;;;5053231;28;20222;-72
2023/09/09 20:03:14;;;;;;;8.93;7.73;;;;;;;;;;5073061;28;20150;-72
2023/09/09 20:06:02;;;;;;;11.87;7.57;;;;;;;;;;5071913;28;20212;-72
2023/09/09 20:08:30;;;;;;;9.83;7.97;;;;;;;;;;5073152;28;20652;-72
2023/09/09 20:11:00;;;;;;;10.97;6.80;;;;;;;;;;5071896;28;20190;-72
2023/09/09 20:13:27;;;;;;;8.90;7.00;;;;;;;;;;5071937;28;20551;-72
2023/09/09 20:15:54;;;;;;;11.17;7.17;;;;;;;;;;5073630;28;20189;-72
2023/09/09 20:18:21;;;;;;;9.60;7.60;;;;;;;;;;5076798;28;20198;-72
2023/09/09 20:20:48;;;;;;;7.83;6.87;;;;;;;;;;5077295;28;20187;-72
2023/09/09 20:23:15;;;;;;;8.10;7.30;;;;;;;;;;5076409;28;20189;-72
2023/09/09 20:25:42;;;;;;;9.53;7.63;;;;;;;;;;5076319;28;20269;-72
2023/09/09 20:28:11;;;;;;;8.07;7.23;;;;;;;;;;5059388;28;20189;-72